createdAt,value
2019-03-17T00:00:00.366Z,1.00
2019-03-17T00:01:06.521Z,0.80
2019-03-17T00:02:11.007Z,0.90
2019-03-17T00:03:15.489Z,0.70
2019-03-17T00:04:30.966Z,0.87
2019-03-17T00:05:26.126Z,1.22
2019-03-17T00:06:30.578Z,0.90
2019-03-17T00:07:35.054Z,0.88
2019-03-17T00:08:39.537Z,0.85
2019-03-17T00:09:44.021Z,0.80
2019-03-17T00:10:48.558Z,0.90
2019-03-17T00:11:53.014Z,0.90
2019-03-17T00:12:57.586Z,0.80
2019-03-17T00:14:02.052Z,1.20
2019-03-17T00:15:06.927Z,1.20
2019-03-17T00:16:11.447Z,0.90
2019-03-17T00:17:16.073Z,0.90
2019-03-17T00:18:20.696Z,1.00
2019-03-17T00:19:27.496Z,0.90
2019-03-17T00:20:31.346Z,0.78
2019-03-17T00:21:35.821Z,0.80
2019-03-17T00:22:40.291Z,1.02
2019-03-17T00:23:44.784Z,1.02
2019-03-17T00:24:49.252Z,0.90
2019-03-17T00:25:53.716Z,0.87
2019-03-17T00:26:58.173Z,0.80
2019-03-17T00:28:02.648Z,1.00
2019-03-17T00:29:07.148Z,1.00
2019-03-17T00:30:12.288Z,1.00
2019-03-17T00:31:23.946Z,0.90
2019-03-17T00:32:22.938Z,1.00
2019-03-17T00:33:27.395Z,0.90
2019-03-17T00:34:43.290Z,0.90
2019-03-17T00:35:38.059Z,1.00
2019-03-17T00:36:42.527Z,1.00
2019-03-17T00:37:47.014Z,1.00
2019-03-17T00:38:51.551Z,1.07
2019-03-17T00:39:56.302Z,0.88
2019-03-17T00:41:00.810Z,1.00
2019-03-17T00:42:05.279Z,0.88
2019-03-17T00:43:09.756Z,0.90
2019-03-17T00:44:14.255Z,0.93
2019-03-17T00:45:18.724Z,1.00
2019-03-17T00:46:23.229Z,0.80
2019-03-17T00:47:27.706Z,0.80
2019-03-17T00:48:32.175Z,0.90
2019-03-17T00:49:36.686Z,0.90
2019-03-17T00:50:41.153Z,0.70
2019-03-17T00:51:45.637Z,1.20
2019-03-17T00:52:50.091Z,1.00
2019-03-17T00:53:54.568Z,0.77
2019-03-17T00:54:59.068Z,1.00
2019-03-17T00:56:03.595Z,0.78
2019-03-17T00:57:08.067Z,0.93
2019-03-17T00:58:12.527Z,0.90
2019-03-17T00:59:16.995Z,0.80
2019-03-17T01:00:21.494Z,1.10
2019-03-17T01:01:25.998Z,1.10
2019-03-17T01:02:30.462Z,1.00
2019-03-17T01:03:34.941Z,0.83
2019-03-17T01:04:39.427Z,0.90
2019-03-17T01:05:43.906Z,0.98
2019-03-17T01:06:48.401Z,1.15
2019-03-17T01:07:52.879Z,0.95
2019-03-17T01:08:57.351Z,0.90
2019-03-17T01:10:01.835Z,0.88
2019-03-17T01:11:06.382Z,1.00
2019-03-17T01:12:10.863Z,0.90
2019-03-17T01:13:15.345Z,1.00
2019-03-17T01:14:19.815Z,0.90
2019-03-17T01:15:24.284Z,0.80
2019-03-17T01:16:28.770Z,0.97
2019-03-17T01:17:33.328Z,0.80
2019-03-17T01:18:37.795Z,0.80
2019-03-17T01:19:42.340Z,0.80
2019-03-17T01:20:47.185Z,0.90
2019-03-17T01:21:51.646Z,1.00
2019-03-17T01:22:56.147Z,1.00
2019-03-17T01:24:00.615Z,0.97
2019-03-17T01:25:07.345Z,0.90
2019-03-17T01:26:11.798Z,0.77
2019-03-17T01:27:16.307Z,0.90
2019-03-17T01:28:20.786Z,1.00
2019-03-17T01:29:25.353Z,0.87
2019-03-17T01:30:29.964Z,0.80
2019-03-17T01:31:34.681Z,0.90
2019-03-17T01:32:39.177Z,1.00
2019-03-17T01:33:43.745Z,0.90
2019-03-17T01:34:48.208Z,1.00
2019-03-17T01:35:52.690Z,0.80
2019-03-17T01:36:57.166Z,0.70
2019-03-17T01:38:01.631Z,0.78
2019-03-17T01:39:06.960Z,0.87
2019-03-17T01:40:11.509Z,0.87
2019-03-17T01:41:15.997Z,0.88
2019-03-17T01:42:20.551Z,0.90
2019-03-17T01:43:25.045Z,0.80
2019-03-17T01:44:29.894Z,1.00
2019-03-17T01:45:34.359Z,1.00
2019-03-17T01:46:38.832Z,0.80
2019-03-17T01:47:43.322Z,0.90
2019-03-17T01:48:47.778Z,1.00
2019-03-17T01:49:52.273Z,0.70
2019-03-17T01:50:56.746Z,1.00
2019-03-17T01:52:01.208Z,0.90
2019-03-17T01:53:05.690Z,1.00
2019-03-17T01:54:10.166Z,0.70
2019-03-17T01:55:14.662Z,0.80
2019-03-17T01:56:19.142Z,0.83
2019-03-17T01:57:23.598Z,0.80
2019-03-17T01:58:28.072Z,0.93
2019-03-17T01:59:32.571Z,1.05
2019-03-17T02:00:37.124Z,0.80
2019-03-17T02:01:41.603Z,1.10
2019-03-17T02:02:46.072Z,0.80
2019-03-17T02:03:50.715Z,0.80
2019-03-17T02:04:55.196Z,0.73
2019-03-17T02:06:02.635Z,0.78
2019-03-17T02:07:07.111Z,0.80
2019-03-17T02:08:11.566Z,0.80
2019-03-17T02:09:16.042Z,0.83
2019-03-17T02:10:20.539Z,0.70
2019-03-17T02:11:24.999Z,0.87
2019-03-17T02:12:29.478Z,0.83
2019-03-17T02:13:33.942Z,0.90
2019-03-17T02:14:38.425Z,0.90
2019-03-17T02:15:42.896Z,0.80
2019-03-17T02:16:47.356Z,0.73
2019-03-17T02:17:51.814Z,0.60
2019-03-17T02:18:56.384Z,0.77
2019-03-17T02:20:00.874Z,0.80
2019-03-17T02:21:05.351Z,0.80
2019-03-17T02:22:09.805Z,0.93
2019-03-17T02:23:14.297Z,0.72
2019-03-17T02:24:18.786Z,0.70
2019-03-17T02:25:23.280Z,0.70
2019-03-17T02:26:27.738Z,0.90
2019-03-17T02:27:32.242Z,0.90
2019-03-17T02:28:36.717Z,0.78
2019-03-17T02:29:41.194Z,0.68
2019-03-17T02:30:45.643Z,0.80
2019-03-17T02:31:50.117Z,0.90
2019-03-17T02:32:54.615Z,0.70
2019-03-17T02:33:59.351Z,0.80
2019-03-17T02:35:04.551Z,0.63
2019-03-17T02:36:09.030Z,0.82
2019-03-17T02:37:13.491Z,0.67
2019-03-17T02:38:17.982Z,0.90
2019-03-17T02:39:26.063Z,0.90
2019-03-17T02:40:29.238Z,0.77
2019-03-17T02:41:33.697Z,0.70
2019-03-17T02:42:38.168Z,0.90
2019-03-17T02:43:42.655Z,0.80
2019-03-17T02:44:47.115Z,0.80
2019-03-17T02:45:51.584Z,0.68
2019-03-17T02:46:56.069Z,0.80
2019-03-17T02:48:00.583Z,1.00
2019-03-17T02:49:05.046Z,0.78
2019-03-17T02:50:09.949Z,0.65
2019-03-17T02:51:14.410Z,0.70
2019-03-17T02:52:18.901Z,0.80
2019-03-17T02:53:23.381Z,0.70
2019-03-17T02:54:27.861Z,0.70
2019-03-17T02:55:32.354Z,0.70
2019-03-17T02:56:36.830Z,0.70
2019-03-17T02:57:41.311Z,0.70
2019-03-17T02:58:45.779Z,0.87
2019-03-17T02:59:50.262Z,0.77
2019-03-17T03:00:54.727Z,0.70
2019-03-17T03:01:59.211Z,0.90
2019-03-17T03:03:03.747Z,0.80
2019-03-17T03:04:08.311Z,0.90
2019-03-17T03:05:12.794Z,0.80
2019-03-17T03:06:17.271Z,1.20
2019-03-17T03:07:21.737Z,0.90
2019-03-17T03:08:26.222Z,0.70
2019-03-17T03:09:30.725Z,0.80
2019-03-17T03:10:35.254Z,0.80
2019-03-17T03:11:39.742Z,0.80
2019-03-17T03:12:44.200Z,0.80
2019-03-17T03:13:48.666Z,0.78
2019-03-17T03:14:53.166Z,0.78
2019-03-17T03:15:57.647Z,0.62
2019-03-17T03:17:02.139Z,0.75
2019-03-17T03:18:06.619Z,0.70
2019-03-17T03:19:11.067Z,0.80
2019-03-17T03:20:15.543Z,0.60
2019-03-17T03:21:20.042Z,0.70
2019-03-17T03:22:24.533Z,0.80
2019-03-17T03:23:29.070Z,0.60
2019-03-17T03:24:33.544Z,0.90
2019-03-17T03:25:38.048Z,0.70
2019-03-17T03:26:42.520Z,0.70
2019-03-17T03:27:46.982Z,0.63
2019-03-17T03:28:51.459Z,0.80
2019-03-17T03:29:55.944Z,0.90
2019-03-17T03:31:00.404Z,0.70
2019-03-17T03:32:04.895Z,0.80
2019-03-17T03:33:09.452Z,0.70
2019-03-17T03:34:13.940Z,0.73
2019-03-17T03:35:18.409Z,0.70
2019-03-17T03:36:22.897Z,0.70
2019-03-17T03:37:27.468Z,0.90
2019-03-17T03:38:32.344Z,0.75
2019-03-17T03:39:36.852Z,0.70
2019-03-17T03:40:41.330Z,0.75
2019-03-17T03:41:45.794Z,0.70
2019-03-17T03:42:50.369Z,0.70
2019-03-17T03:43:54.855Z,0.70
2019-03-17T03:44:59.402Z,0.80
2019-03-17T03:46:04.042Z,0.60
2019-03-17T03:47:08.541Z,0.60
2019-03-17T03:48:13.160Z,0.70
2019-03-17T03:49:17.628Z,0.90
2019-03-17T03:50:22.272Z,0.77
2019-03-17T03:51:26.755Z,0.87
2019-03-17T03:52:31.217Z,0.70
2019-03-17T03:53:35.720Z,0.60
2019-03-17T03:54:40.174Z,0.70
2019-03-17T03:55:44.672Z,0.80
2019-03-17T03:56:49.144Z,0.80
2019-03-17T03:57:53.604Z,0.67
2019-03-17T03:58:58.448Z,0.80
2019-03-17T04:00:03.611Z,0.80
2019-03-17T04:01:08.091Z,0.70
2019-03-17T04:02:12.552Z,0.60
2019-03-17T04:03:17.023Z,0.68
2019-03-17T04:04:21.522Z,0.70
2019-03-17T04:05:25.970Z,0.70
2019-03-17T04:06:30.461Z,0.70
2019-03-17T04:07:34.932Z,0.70
2019-03-17T04:08:39.426Z,0.70
2019-03-17T04:09:43.895Z,0.70
2019-03-17T04:10:48.546Z,0.68
2019-03-17T04:11:53.005Z,0.73
2019-03-17T04:12:57.477Z,0.83
2019-03-17T04:14:01.937Z,0.60
2019-03-17T04:15:08.448Z,0.80
2019-03-17T04:16:12.929Z,0.80
2019-03-17T04:17:17.387Z,0.70
2019-03-17T04:18:22.034Z,0.70
2019-03-17T04:19:26.507Z,0.70
2019-03-17T04:20:30.999Z,0.85
2019-03-17T04:21:35.492Z,0.60
2019-03-17T04:22:40.025Z,0.60
2019-03-17T04:23:44.656Z,0.60
2019-03-17T04:24:49.127Z,0.90
2019-03-17T04:25:53.710Z,0.70
2019-03-17T04:26:58.253Z,0.70
2019-03-17T04:28:02.722Z,0.60
2019-03-17T04:29:07.179Z,0.80
2019-03-17T04:30:11.645Z,0.50
2019-03-17T04:31:16.156Z,0.63
2019-03-17T04:32:20.947Z,0.70
2019-03-17T04:33:25.416Z,0.80
2019-03-17T04:34:29.894Z,0.43
2019-03-17T04:35:34.369Z,0.60
2019-03-17T04:36:40.434Z,0.70
2019-03-17T04:37:45.034Z,0.70
2019-03-17T04:38:49.491Z,0.80
2019-03-17T04:39:53.984Z,0.90
2019-03-17T04:40:58.444Z,0.63
2019-03-17T04:42:02.922Z,0.60
2019-03-17T04:43:07.379Z,0.75
2019-03-17T04:44:20.219Z,0.70
2019-03-17T04:45:18.040Z,0.70
2019-03-17T04:46:22.518Z,0.70
2019-03-17T04:47:27.008Z,0.70
2019-03-17T04:48:31.545Z,0.60
2019-03-17T04:49:36.003Z,0.77
2019-03-17T04:50:40.480Z,0.82
2019-03-17T04:51:44.977Z,0.60
2019-03-17T04:52:49.446Z,0.50
2019-03-17T04:53:53.912Z,0.80
2019-03-17T04:54:58.466Z,0.70
2019-03-17T04:56:02.952Z,0.70
2019-03-17T04:57:07.523Z,0.60
2019-03-17T04:58:11.982Z,0.70
2019-03-17T04:59:16.461Z,0.60
2019-03-17T05:00:20.963Z,0.70
2019-03-17T05:01:25.418Z,0.65
2019-03-17T05:02:29.895Z,0.70
2019-03-17T05:03:34.369Z,0.70
2019-03-17T05:04:38.861Z,0.72
2019-03-17T05:05:43.359Z,0.60
2019-03-17T05:06:52.956Z,0.70
2019-03-17T05:07:54.705Z,0.80
2019-03-17T05:08:59.162Z,0.70
2019-03-17T05:10:05.976Z,0.80
2019-03-17T05:11:10.433Z,0.70
2019-03-17T05:12:14.926Z,0.70
2019-03-17T05:13:19.408Z,0.80
2019-03-17T05:14:23.878Z,0.60
2019-03-17T05:15:28.334Z,0.87
2019-03-17T05:16:35.600Z,0.53
2019-03-17T05:17:38.980Z,0.67
2019-03-17T05:18:43.476Z,0.60
2019-03-17T05:19:47.962Z,0.70
2019-03-17T05:20:52.435Z,0.70
2019-03-17T05:21:56.900Z,0.80
2019-03-17T05:23:01.381Z,0.70
2019-03-17T05:24:05.957Z,0.50
2019-03-17T05:25:10.515Z,0.60
2019-03-17T05:26:14.994Z,0.55
2019-03-17T05:27:19.445Z,0.80
2019-03-17T05:28:23.937Z,0.75
2019-03-17T05:29:28.439Z,0.60
2019-03-17T05:30:32.904Z,0.60
2019-03-17T05:31:37.384Z,0.70
2019-03-17T05:32:41.861Z,0.63
2019-03-17T05:33:46.360Z,0.63
2019-03-17T05:34:50.839Z,0.63
2019-03-17T05:35:55.318Z,0.60
2019-03-17T05:37:06.181Z,0.60
2019-03-17T05:38:05.957Z,0.50
2019-03-17T05:39:11.658Z,0.60
2019-03-17T05:40:16.127Z,0.63
2019-03-17T05:41:20.591Z,0.70
2019-03-17T05:42:25.063Z,0.50
2019-03-17T05:43:29.539Z,0.63
2019-03-17T05:44:34.057Z,0.50
2019-03-17T05:45:38.693Z,0.70
2019-03-17T05:46:43.180Z,0.50
2019-03-17T05:47:47.667Z,0.50
2019-03-17T05:48:52.122Z,0.68
2019-03-17T05:49:56.599Z,0.75
2019-03-17T05:51:01.096Z,0.70
2019-03-17T05:52:05.572Z,0.65
2019-03-17T05:53:10.037Z,0.60
2019-03-17T05:54:14.490Z,0.60
2019-03-17T05:55:19.036Z,0.60
2019-03-17T05:56:23.507Z,0.60
2019-03-17T05:57:27.967Z,0.53
2019-03-17T05:58:32.457Z,0.70
2019-03-17T05:59:36.924Z,0.70
2019-03-17T06:00:41.378Z,0.60
2019-03-17T06:01:45.874Z,0.40
2019-03-17T06:02:50.358Z,0.60
2019-03-17T06:03:54.824Z,0.70
2019-03-17T06:04:59.288Z,0.50
2019-03-17T06:06:03.886Z,0.53
2019-03-17T06:07:18.246Z,0.70
2019-03-17T06:08:14.547Z,0.60
2019-03-17T06:09:19.264Z,0.77
2019-03-17T06:10:23.729Z,0.60
2019-03-17T06:11:28.210Z,0.40
2019-03-17T06:12:32.692Z,0.60
2019-03-17T06:13:37.181Z,0.60
2019-03-17T06:14:41.648Z,0.70
2019-03-17T06:15:46.193Z,0.70
2019-03-17T06:16:50.699Z,0.60
2019-03-17T06:17:55.170Z,0.60
2019-03-17T06:19:02.729Z,0.60
2019-03-17T06:20:10.041Z,0.70
2019-03-17T06:21:14.528Z,0.60
2019-03-17T06:22:18.986Z,0.60
2019-03-17T06:23:23.485Z,0.43
2019-03-17T06:24:27.954Z,0.65
2019-03-17T06:25:32.449Z,0.60
2019-03-17T06:26:36.921Z,0.47
2019-03-17T06:27:41.392Z,0.53
2019-03-17T06:28:45.875Z,0.60
2019-03-17T06:29:50.371Z,0.57
2019-03-17T06:30:54.839Z,0.60
2019-03-17T06:31:59.307Z,0.50
2019-03-17T06:33:03.864Z,0.53
2019-03-17T06:34:08.358Z,0.55
2019-03-17T06:35:12.815Z,0.70
2019-03-17T06:36:17.289Z,0.70
2019-03-17T06:37:30.488Z,0.50
2019-03-17T06:38:27.928Z,0.40
2019-03-17T06:39:32.403Z,0.50
2019-03-17T06:40:36.866Z,0.50
2019-03-17T06:41:41.330Z,0.70
2019-03-17T06:42:45.812Z,0.63
2019-03-17T06:43:50.298Z,0.60
2019-03-17T06:44:54.786Z,0.70
2019-03-17T06:45:59.257Z,0.73
2019-03-17T06:47:05.884Z,0.60
2019-03-17T06:48:10.170Z,0.70
2019-03-17T06:49:14.622Z,0.70
2019-03-17T06:50:19.103Z,0.75
2019-03-17T06:51:23.574Z,0.70
2019-03-17T06:52:28.331Z,0.62
2019-03-17T06:53:32.790Z,0.67
2019-03-17T06:54:37.251Z,0.87
2019-03-17T06:55:41.755Z,0.90
2019-03-17T06:56:46.224Z,0.70
2019-03-17T06:57:50.690Z,0.75
2019-03-17T06:58:55.162Z,0.60
2019-03-17T06:59:59.641Z,0.55
2019-03-17T07:01:04.205Z,0.68
2019-03-17T07:02:08.676Z,0.50
2019-03-17T07:03:13.164Z,0.60
2019-03-17T07:04:17.631Z,0.65
2019-03-17T07:05:22.102Z,0.70
2019-03-17T07:06:26.588Z,0.50
2019-03-17T07:07:42.955Z,0.60
2019-03-17T07:08:37.314Z,0.60
2019-03-17T07:09:41.767Z,0.70
2019-03-17T07:10:46.233Z,0.70
2019-03-17T07:11:50.800Z,0.53
2019-03-17T07:12:55.258Z,0.72
2019-03-17T07:13:59.732Z,0.60
2019-03-17T07:15:06.050Z,0.70
2019-03-17T07:16:10.522Z,0.50
2019-03-17T07:17:15.016Z,0.60
2019-03-17T07:18:19.502Z,0.80
2019-03-17T07:19:23.985Z,0.70
2019-03-17T07:20:28.693Z,0.70
2019-03-17T07:21:33.189Z,0.62
2019-03-17T07:22:37.648Z,0.78
2019-03-17T07:23:42.153Z,0.80
2019-03-17T07:24:46.598Z,0.88
2019-03-17T07:25:51.072Z,0.70
2019-03-17T07:26:55.544Z,0.80
2019-03-17T07:28:00.030Z,0.50
2019-03-17T07:29:04.562Z,0.60
2019-03-17T07:30:13.717Z,0.50
2019-03-17T07:31:18.212Z,0.57
2019-03-17T07:32:22.685Z,0.65
2019-03-17T07:33:27.142Z,1.03
2019-03-17T07:34:31.635Z,0.80
2019-03-17T07:35:36.086Z,0.70
2019-03-17T07:36:40.560Z,0.73
2019-03-17T07:37:56.106Z,0.70
2019-03-17T07:38:51.301Z,0.80
2019-03-17T07:39:55.763Z,0.57
2019-03-17T07:41:00.244Z,0.60
2019-03-17T07:42:04.850Z,0.80
2019-03-17T07:43:09.339Z,0.67
2019-03-17T07:44:13.804Z,0.70
2019-03-17T07:45:18.298Z,0.70
2019-03-17T07:46:22.786Z,0.80
2019-03-17T07:47:27.260Z,0.75
2019-03-17T07:48:31.720Z,0.80
2019-03-17T07:49:36.195Z,0.78
2019-03-17T07:50:40.679Z,0.70
2019-03-17T07:51:45.148Z,0.70
2019-03-17T07:52:49.628Z,0.80
2019-03-17T07:53:54.360Z,0.80
2019-03-17T07:54:58.827Z,0.63
2019-03-17T07:56:03.321Z,0.70
2019-03-17T07:57:07.832Z,0.90
2019-03-17T07:58:12.313Z,0.90
2019-03-17T07:59:16.801Z,0.90
2019-03-17T08:00:31.309Z,0.80
2019-03-17T08:01:27.437Z,0.80
2019-03-17T08:02:31.918Z,0.67
2019-03-17T08:03:36.774Z,0.97
2019-03-17T08:04:43.011Z,0.60
2019-03-17T08:05:47.413Z,0.90
2019-03-17T08:06:51.931Z,0.80
2019-03-17T08:08:08.183Z,0.80
2019-03-17T08:09:02.646Z,0.70
2019-03-17T08:10:14.580Z,0.70
2019-03-17T08:11:19.055Z,0.70
2019-03-17T08:12:23.541Z,0.72
2019-03-17T08:13:28.008Z,0.60
2019-03-17T08:14:32.484Z,0.80
2019-03-17T08:15:36.967Z,0.60
2019-03-17T08:16:41.606Z,0.70
2019-03-17T08:17:46.080Z,0.67
2019-03-17T08:18:50.540Z,0.90
2019-03-17T08:19:55.013Z,0.73
2019-03-17T08:20:59.474Z,0.70
2019-03-17T08:22:03.982Z,0.70
2019-03-17T08:23:08.451Z,0.80
2019-03-17T08:24:12.934Z,0.63
2019-03-17T08:25:17.393Z,0.70
2019-03-17T08:26:21.867Z,0.80
2019-03-17T08:27:26.349Z,0.70
2019-03-17T08:28:30.842Z,0.50
2019-03-17T08:29:35.312Z,0.73
2019-03-17T08:30:52.168Z,0.63
2019-03-17T08:31:45.951Z,0.72
2019-03-17T08:32:50.439Z,0.60
2019-03-17T08:33:54.915Z,0.90
2019-03-17T08:34:59.389Z,0.75
2019-03-17T08:36:03.867Z,0.72
2019-03-17T08:37:08.364Z,0.60
2019-03-17T08:38:21.962Z,0.80
2019-03-17T08:39:19.019Z,0.68
2019-03-17T08:40:23.496Z,0.75
2019-03-17T08:41:27.965Z,0.60
2019-03-17T08:42:32.477Z,0.80
2019-03-17T08:43:36.929Z,0.80
2019-03-17T08:44:41.405Z,0.80
2019-03-17T08:45:45.909Z,0.70
2019-03-17T08:46:50.367Z,0.80
2019-03-17T08:47:58.233Z,1.10
2019-03-17T08:49:01.252Z,1.00
2019-03-17T08:50:08.904Z,1.00
2019-03-17T08:51:13.547Z,0.63
2019-03-17T08:52:18.073Z,0.60
2019-03-17T08:53:22.561Z,0.70
2019-03-17T08:54:27.035Z,0.60
2019-03-17T08:55:31.504Z,0.70
2019-03-17T08:56:36.388Z,0.80
2019-03-17T08:57:40.873Z,0.70
2019-03-17T08:58:45.366Z,0.90
2019-03-17T08:59:49.834Z,0.67
2019-03-17T09:00:54.311Z,0.60
2019-03-17T09:01:58.792Z,0.80
2019-03-17T09:03:03.430Z,0.70
2019-03-17T09:04:07.911Z,0.70
2019-03-17T09:05:12.380Z,0.80
2019-03-17T09:06:16.868Z,0.78
2019-03-17T09:07:21.339Z,0.67
2019-03-17T09:08:34.776Z,0.60
2019-03-17T09:09:31.985Z,0.60
2019-03-17T09:10:36.462Z,0.73
2019-03-17T09:11:40.606Z,0.70
2019-03-17T09:12:44.727Z,0.77
2019-03-17T09:13:49.075Z,0.80
2019-03-17T09:14:53.562Z,0.90
2019-03-17T09:15:58.057Z,0.70
2019-03-17T09:17:13.777Z,0.73
2019-03-17T09:18:08.719Z,0.77
2019-03-17T09:19:13.218Z,0.70
2019-03-17T09:20:17.686Z,0.60
2019-03-17T09:21:22.177Z,0.80
2019-03-17T09:22:26.896Z,0.70
2019-03-17T09:23:31.392Z,0.90
2019-03-17T09:24:35.874Z,0.70
2019-03-17T09:25:40.351Z,0.80
2019-03-17T09:26:44.823Z,0.70
2019-03-17T09:27:49.314Z,0.80
2019-03-17T09:28:53.828Z,0.70
2019-03-17T09:29:58.308Z,0.80
2019-03-17T09:31:06.091Z,0.70
2019-03-17T09:32:08.993Z,0.70
2019-03-17T09:33:13.467Z,0.70
2019-03-17T09:34:17.997Z,0.90
2019-03-17T09:35:22.545Z,0.70
2019-03-17T09:36:27.023Z,0.80
2019-03-17T09:37:31.493Z,0.90
2019-03-17T09:38:46.882Z,0.80
2019-03-17T09:39:42.168Z,0.60
2019-03-17T09:40:46.644Z,0.80
2019-03-17T09:41:51.117Z,0.90
2019-03-17T09:42:55.591Z,0.80
2019-03-17T09:43:59.736Z,0.80
2019-03-17T09:45:06.229Z,0.70
2019-03-17T09:46:10.865Z,0.60
2019-03-17T09:47:15.339Z,0.90
2019-03-17T09:48:19.814Z,0.70
2019-03-17T09:49:24.282Z,0.70
2019-03-17T09:50:28.786Z,0.67
2019-03-17T09:51:33.280Z,0.70
2019-03-17T09:52:37.770Z,0.63
2019-03-17T09:53:42.256Z,0.70
2019-03-17T09:54:46.725Z,0.80
2019-03-17T09:55:51.192Z,0.80
2019-03-17T09:56:55.671Z,0.80
2019-03-17T09:58:00.130Z,0.70
2019-03-17T09:59:04.625Z,0.70
2019-03-17T10:00:17.968Z,0.50
2019-03-17T10:01:22.459Z,0.60
2019-03-17T10:02:27.053Z,0.70
2019-03-17T10:03:31.528Z,0.60
2019-03-17T10:04:36.013Z,0.60
2019-03-17T10:05:40.475Z,0.60
2019-03-17T10:06:44.961Z,0.70
2019-03-17T10:07:49.438Z,0.77
2019-03-17T10:08:59.843Z,0.63
2019-03-17T10:10:00.089Z,0.70
2019-03-17T10:11:04.629Z,0.80
2019-03-17T10:12:09.110Z,0.60
2019-03-17T10:13:13.605Z,0.70
2019-03-17T10:14:18.078Z,0.70
2019-03-17T10:15:22.565Z,0.80
2019-03-17T10:16:27.053Z,0.70
2019-03-17T10:17:31.526Z,0.70
2019-03-17T10:18:36.015Z,0.77
2019-03-17T10:19:40.497Z,0.67
2019-03-17T10:20:44.962Z,0.80
2019-03-17T10:21:49.450Z,0.60
2019-03-17T10:22:54.081Z,0.70
2019-03-17T10:23:58.566Z,0.77
2019-03-17T10:25:03.099Z,0.80
2019-03-17T10:26:07.574Z,0.80
2019-03-17T10:27:12.058Z,0.50
2019-03-17T10:28:16.534Z,0.70
2019-03-17T10:29:21.024Z,0.70
2019-03-17T10:30:25.564Z,0.70
2019-03-17T10:31:30.038Z,0.67
2019-03-17T10:32:34.535Z,0.70
2019-03-17T10:33:39.015Z,0.60
2019-03-17T10:34:43.682Z,0.90
2019-03-17T10:35:48.139Z,0.80
2019-03-17T10:36:52.612Z,0.50
2019-03-17T10:37:57.074Z,0.80
2019-03-17T10:39:12.058Z,0.70
2019-03-17T10:40:19.816Z,0.77
2019-03-17T10:41:24.288Z,0.70
2019-03-17T10:42:28.738Z,0.70
2019-03-17T10:43:33.216Z,0.80
2019-03-17T10:44:37.706Z,0.83
2019-03-17T10:45:42.181Z,0.60
2019-03-17T10:46:46.649Z,0.70
2019-03-17T10:47:53.354Z,0.70
2019-03-17T10:48:57.304Z,0.60
2019-03-17T10:50:02.029Z,0.50
2019-03-17T10:51:06.507Z,0.70
2019-03-17T10:52:10.978Z,0.80
2019-03-17T10:53:15.535Z,0.73
2019-03-17T10:54:20.017Z,0.90
2019-03-17T10:55:24.677Z,0.63
2019-03-17T10:56:29.300Z,0.80
2019-03-17T10:57:33.785Z,0.77
2019-03-17T10:58:38.257Z,0.83
2019-03-17T10:59:42.796Z,0.70
2019-03-17T11:00:47.259Z,0.60
2019-03-17T11:01:51.743Z,0.60
2019-03-17T11:02:56.220Z,0.70
2019-03-17T11:04:00.700Z,0.80
2019-03-17T11:05:06.507Z,0.70
2019-03-17T11:06:10.988Z,0.80
2019-03-17T11:07:15.476Z,0.87
2019-03-17T11:08:19.978Z,0.73
2019-03-17T11:09:25.648Z,0.60
2019-03-17T11:10:30.332Z,0.80
2019-03-17T11:11:34.786Z,0.80
2019-03-17T11:12:39.273Z,0.87
2019-03-17T11:13:43.780Z,0.90
2019-03-17T11:14:48.243Z,0.90
2019-03-17T11:15:52.715Z,0.70
2019-03-17T11:16:57.178Z,0.70
2019-03-17T11:18:01.932Z,0.77
2019-03-17T11:19:06.496Z,0.70
2019-03-17T11:20:12.160Z,0.67
2019-03-17T11:21:16.652Z,0.60
2019-03-17T11:22:21.123Z,0.60
2019-03-17T11:23:25.664Z,0.60
2019-03-17T11:24:30.123Z,0.80
2019-03-17T11:25:34.595Z,0.70
2019-03-17T11:26:39.067Z,0.70
2019-03-17T11:27:43.542Z,0.60
2019-03-17T11:28:48.011Z,0.80
2019-03-17T11:29:52.523Z,0.80
2019-03-17T11:30:58.454Z,0.80
2019-03-17T11:32:02.602Z,0.83
2019-03-17T11:33:07.004Z,0.77
2019-03-17T11:34:11.507Z,0.70
2019-03-17T11:35:16.963Z,0.70
2019-03-17T11:36:21.439Z,0.90
2019-03-17T11:37:25.922Z,0.70
2019-03-17T11:38:30.402Z,0.87
2019-03-17T11:39:38.107Z,0.80
2019-03-17T11:40:41.073Z,0.70
2019-03-17T11:41:45.598Z,0.80
2019-03-17T11:42:50.557Z,0.73
2019-03-17T11:43:55.121Z,0.50
2019-03-17T11:44:59.575Z,0.63
2019-03-17T11:46:04.394Z,0.90
2019-03-17T11:47:08.864Z,0.80
2019-03-17T11:48:13.423Z,0.80
2019-03-17T11:49:17.909Z,0.70
2019-03-17T11:50:22.706Z,0.80
2019-03-17T11:51:27.539Z,0.90
2019-03-17T11:52:32.068Z,0.93
2019-03-17T11:53:36.611Z,0.80
2019-03-17T11:54:40.751Z,0.80
2019-03-17T11:55:45.106Z,0.60
2019-03-17T11:56:49.735Z,0.70
2019-03-17T11:57:54.295Z,1.00
2019-03-17T11:58:58.773Z,0.80
2019-03-17T12:00:04.876Z,0.70
2019-03-17T12:01:09.359Z,0.80
2019-03-17T12:02:25.704Z,1.00
2019-03-17T12:03:19.551Z,0.80
2019-03-17T12:04:24.034Z,0.90
2019-03-17T12:05:28.493Z,0.63
2019-03-17T12:06:32.985Z,0.80
2019-03-17T12:07:37.468Z,0.70
2019-03-17T12:08:42.013Z,1.00
2019-03-17T12:09:50.411Z,0.80
2019-03-17T12:10:52.689Z,1.00
2019-03-17T12:11:57.183Z,1.00
2019-03-17T12:13:01.678Z,0.80
2019-03-17T12:14:06.152Z,0.80
2019-03-17T12:15:17.964Z,1.00
2019-03-17T12:16:22.443Z,0.90
2019-03-17T12:17:26.917Z,0.90
2019-03-17T12:18:31.569Z,0.70
2019-03-17T12:19:36.107Z,0.90
2019-03-17T12:20:40.650Z,0.80
2019-03-17T12:21:45.142Z,0.90
2019-03-17T12:22:49.638Z,0.70
2019-03-17T12:23:54.121Z,0.80
2019-03-17T12:24:58.660Z,0.97
2019-03-17T12:26:03.143Z,0.90
2019-03-17T12:27:07.622Z,0.90
2019-03-17T12:28:12.120Z,1.10
2019-03-17T12:29:16.578Z,0.80
2019-03-17T12:30:27.816Z,0.80
2019-03-17T12:31:32.304Z,0.90
2019-03-17T12:32:36.786Z,0.70
2019-03-17T12:33:41.293Z,1.00
2019-03-17T12:34:45.762Z,0.90
2019-03-17T12:35:50.484Z,0.90
2019-03-17T12:36:54.974Z,1.07
2019-03-17T12:37:59.565Z,0.90
2019-03-17T12:39:05.660Z,0.90
2019-03-17T12:40:10.259Z,0.90
2019-03-17T12:41:14.756Z,0.70
2019-03-17T12:42:19.227Z,1.00
2019-03-17T12:43:23.733Z,1.07
2019-03-17T12:44:28.200Z,1.00
2019-03-17T12:45:33.094Z,1.20
2019-03-17T12:46:37.559Z,0.90
2019-03-17T12:47:42.119Z,0.97
2019-03-17T12:48:46.616Z,0.80
2019-03-17T12:49:51.106Z,0.93
2019-03-17T12:50:55.575Z,1.33
2019-03-17T12:52:00.073Z,1.20
2019-03-17T12:53:06.713Z,0.90
2019-03-17T12:54:10.696Z,1.03
2019-03-17T12:55:15.180Z,0.80
2019-03-17T12:56:19.649Z,1.00
2019-03-17T12:57:24.143Z,0.90
2019-03-17T12:58:28.691Z,1.10
2019-03-17T12:59:33.225Z,1.03
2019-03-17T13:00:37.718Z,0.93
2019-03-17T13:01:42.191Z,0.93
2019-03-17T13:02:46.747Z,0.70
2019-03-17T13:03:51.229Z,0.80
2019-03-17T13:04:55.728Z,0.90
2019-03-17T13:06:00.201Z,0.80
2019-03-17T13:07:04.671Z,1.10
2019-03-17T13:08:09.132Z,1.00
2019-03-17T13:09:13.604Z,1.00
2019-03-17T13:10:19.490Z,0.87
2019-03-17T13:11:24.116Z,0.90
2019-03-17T13:12:28.584Z,0.77
2019-03-17T13:13:33.133Z,0.80
2019-03-17T13:14:37.596Z,0.90
2019-03-17T13:15:42.074Z,0.80
2019-03-17T13:16:46.534Z,0.80
2019-03-17T13:17:50.687Z,0.90
2019-03-17T13:18:55.051Z,1.03
2019-03-17T13:19:59.518Z,1.10
2019-03-17T13:21:03.989Z,1.10
2019-03-17T13:22:08.488Z,0.80
2019-03-17T13:23:12.949Z,1.07
2019-03-17T13:24:17.449Z,0.80
2019-03-17T13:25:21.635Z,0.90
2019-03-17T13:26:26.004Z,0.90
2019-03-17T13:27:30.248Z,1.20
2019-03-17T13:28:34.616Z,1.00
2019-03-17T13:29:39.084Z,0.90
2019-03-17T13:30:43.551Z,0.93
2019-03-17T13:31:48.023Z,0.90
2019-03-17T13:32:52.486Z,1.10
2019-03-17T13:33:57.206Z,1.07
2019-03-17T13:35:01.795Z,1.00
2019-03-17T13:36:06.268Z,0.90
2019-03-17T13:37:10.739Z,0.93
2019-03-17T13:38:15.235Z,0.97
2019-03-17T13:39:19.730Z,1.00
2019-03-17T13:40:29.423Z,0.80
2019-03-17T13:41:30.354Z,1.20
2019-03-17T13:42:34.822Z,1.13
2019-03-17T13:43:39.360Z,0.97
2019-03-17T13:44:44.120Z,0.90
2019-03-17T13:45:48.608Z,1.00
2019-03-17T13:46:53.079Z,1.10
2019-03-17T13:47:57.561Z,1.17
2019-03-17T13:49:02.038Z,1.13
2019-03-17T13:50:09.626Z,1.00
2019-03-17T13:51:14.112Z,1.10
2019-03-17T13:52:18.618Z,0.97
2019-03-17T13:53:23.224Z,0.93
2019-03-17T13:54:27.685Z,1.00
2019-03-17T13:55:32.163Z,1.50
2019-03-17T13:56:36.713Z,1.17
2019-03-17T13:57:43.882Z,1.10
2019-03-17T13:58:48.347Z,1.10
2019-03-17T13:59:52.838Z,0.97
2019-03-17T14:00:57.334Z,1.10
2019-03-17T14:02:01.811Z,1.30
2019-03-17T14:03:06.280Z,1.20
2019-03-17T14:04:10.765Z,1.07
2019-03-17T14:05:15.222Z,1.10
2019-03-17T14:06:19.716Z,0.90
2019-03-17T14:07:24.219Z,1.20
2019-03-17T14:08:28.701Z,1.10
2019-03-17T14:09:35.421Z,1.00
2019-03-17T14:10:41.336Z,1.00
2019-03-17T14:11:45.969Z,1.20
2019-03-17T14:12:50.476Z,0.97
2019-03-17T14:13:55.594Z,1.07
2019-03-17T14:15:00.070Z,1.40
2019-03-17T14:16:04.610Z,1.20
2019-03-17T14:17:09.103Z,1.20
2019-03-17T14:18:13.592Z,1.17
2019-03-17T14:19:18.072Z,1.30
2019-03-17T14:20:22.827Z,1.30